Time;durP1;ratioP1;P1;durP2;ratioP2;P2;SDS_P1;SDS_P2;PMS_P1;PMS_P2;Temp;Humidity;BMP_temperature;BMP_pressure;BME280_temperature;BME280_humidity;BME280_pressure;Samples;Min_cycle;Max_cycle;Signal;HPM_P1;HPM_P2
2022/05/13 00:00:41;;;;;;;3.50;2.70;;;24.70;48.50;;;;;;4972063;28;20393;-64
2022/05/13 00:03:07;;;;;;;4.28;2.72;;;24.70;48.60;;;;;;4975889;28;20788;-64
2022/05/13 00:05:32;;;;;;;4.32;2.70;;;24.60;48.50;;;;;;4976086;28;20384;-64
2022/05/13 00:07:58;;;;;;;3.33;2.55;;;24.70;48.70;;;;;;4974727;28;20765;-64
2022/05/13 00:10:24;;;;;;;4.28;2.80;;;24.70;48.70;;;;;;4975810;28;20396;-64
2022/05/13 00:12:51;;;;;;;5.10;3.00;;;24.60;48.70;;;;;;4975198;28;20434;-64
2022/05/13 00:15:20;;;;;;;3.40;2.70;;;24.60;48.60;;;;;;4975676;28;20392;-64
2022/05/13 00:17:47;;;;;;;4.47;2.90;;;24.60;48.70;;;;;;4975827;28;20396;-64
2022/05/13 00:20:14;;;;;;;5.72;2.65;;;24.60;48.70;;;;;;4975701;28;20880;-64
2022/05/13 00:22:49;;;;;;;3.75;2.40;;;24.60;48.80;;;;;;4975365;28;20826;-64
2022/05/13 00:25:17;;;;;;;4.57;2.90;;;24.60;48.80;;;;;;4975597;28;20384;-64
2022/05/13 00:27:43;;;;;;;4.03;2.53;;;24.60;48.90;;;;;;4990410;28;21050;-64
2022/05/13 00:30:09;;;;;;;4.13;2.80;;;24.60;48.90;;;;;;4975575;28;20479;-64
2022/05/13 00:32:36;;;;;;;4.80;2.70;;;24.60;48.90;;;;;;4974987;28;20485;-64
2022/05/13 00:35:03;;;;;;;3.83;2.53;;;24.60;48.90;;;;;;4975329;28;20403;-64
2022/05/13 00:37:29;;;;;;;4.57;2.60;;;24.50;48.90;;;;;;4975532;28;20396;-64
2022/05/13 00:39:54;;;;;;;5.50;3.20;;;24.50;49.00;;;;;;4975440;28;20442;-64
2022/05/13 00:42:22;;;;;;;4.50;2.90;;;24.50;49.10;;;;;;4975327;28;20876;-65
2022/05/13 00:44:48;;;;;;;3.85;2.72;;;24.50;49.10;;;;;;4974858;28;20860;-64
2022/05/13 00:47:14;;;;;;;3.35;2.55;;;24.50;49.10;;;;;;4975304;28;20436;-65
2022/05/13 00:49:40;;;;;;;3.60;2.97;;;24.50;49.10;;;;;;4975346;28;20479;-64
2022/05/13 00:52:10;;;;;;;4.72;2.80;;;24.40;49.00;;;;;;4974992;28;20415;-64
2022/05/13 00:54:39;;;;;;;3.90;2.70;;;24.40;49.10;;;;;;4974588;28;20963;-64
2022/05/13 00:57:05;;;;;;;4.25;3.00;;;24.40;49.20;;;;;;4974769;28;20883;-64
2022/05/13 00:59:33;;;;;;;4.18;2.80;;;24.40;49.20;;;;;;4974712;28;20440;-64
2022/05/13 01:01:59;;;;;;;4.03;2.95;;;24.40;49.20;;;;;;4974638;28;20392;-64
2022/05/13 01:04:26;;;;;;;4.27;2.70;;;24.40;49.20;;;;;;4974723;28;20400;-64
2022/05/13 01:06:56;;;;;;;5.33;2.87;;;24.40;49.20;;;;;;4972911;28;20516;-64
2022/05/13 01:09:22;;;;;;;4.28;2.78;;;24.40;49.20;;;;;;4974906;28;20403;-64
2022/05/13 01:11:52;;;;;;;4.25;2.90;;;24.40;49.30;;;;;;4989577;28;20436;-64
2022/05/13 01:14:41;;;;;;;4.82;2.85;;;24.40;49.30;;;;;;4988805;28;20450;-64
2022/05/13 01:20:02;;;;;;;3.75;2.88;;;24.40;49.50;;;;;;4974719;28;20399;-64
2022/05/13 01:22:27;;;;;;;4.43;2.95;;;24.30;49.40;;;;;;4989628;28;20392;-64
2022/05/13 01:24:54;;;;;;;3.27;2.90;;;24.40;49.40;;;;;;4974179;28;20471;-65
2022/05/13 01:27:20;;;;;;;3.42;2.60;;;24.40;49.60;;;;;;4989342;28;20391;-64
2022/05/13 01:29:45;;;;;;;4.97;2.90;;;24.30;49.50;;;;;;4974547;28;20491;-64
2022/05/13 01:32:11;;;;;;;4.28;2.80;;;24.30;49.50;;;;;;4974413;28;20424;-64
2022/05/13 01:34:37;;;;;;;3.40;2.80;;;24.30;49.60;;;;;;4974168;28;20874;-64
2022/05/13 01:37:02;;;;;;;4.13;2.65;;;24.30;49.60;;;;;;4974240;28;20458;-64
2022/05/13 01:39:28;;;;;;;3.97;2.92;;;24.30;49.60;;;;;;4974449;28;20943;-64
2022/05/13 01:41:54;;;;;;;3.50;2.60;;;24.30;49.60;;;;;;4974305;28;20895;-65
2022/05/13 01:44:19;;;;;;;4.55;3.13;;;24.30;49.70;;;;;;4974198;28;20769;-64
2022/05/13 01:46:46;;;;;;;3.83;2.70;;;24.30;50.20;;;;;;4973849;28;20392;-65
2022/05/13 01:49:12;;;;;;;3.50;2.80;;;24.30;49.70;;;;;;4973831;28;20396;-64
2022/05/13 01:51:38;;;;;;;3.88;2.72;;;24.30;49.70;;;;;;4973132;28;20416;-64
2022/05/13 01:54:04;;;;;;;4.60;3.20;;;24.30;49.70;;;;;;4973809;28;20412;-64
2022/05/13 01:56:30;;;;;;;4.50;2.80;;;24.20;49.70;;;;;;4973624;28;20399;-64
2022/05/13 01:58:56;;;;;;;4.90;2.67;;;24.20;49.80;;;;;;4973525;28;20491;-65
2022/05/13 02:01:21;;;;;;;4.77;3.00;;;24.20;49.80;;;;;;4973964;28;20845;-64
2022/05/13 02:03:47;;;;;;;4.68;2.92;;;24.20;49.80;;;;;;4973918;28;20410;-64
2022/05/13 02:06:16;;;;;;;3.47;2.70;;;24.20;49.80;;;;;;4988968;28;20404;-64
2022/05/13 02:08:42;;;;;;;3.35;2.67;;;24.20;49.90;;;;;;4973645;28;20458;-64
2022/05/13 02:11:09;;;;;;;4.03;3.00;;;24.20;49.80;;;;;;4973610;28;20384;-65
2022/05/13 02:13:35;;;;;;;3.83;2.78;;;24.20;49.90;;;;;;4973573;28;20404;-64
2022/05/13 02:16:03;;;;;;;4.25;2.83;;;24.20;50.00;;;;;;4973823;28;20447;-64
2022/05/13 02:18:28;;;;;;;3.97;3.00;;;24.20;49.90;;;;;;4973582;28;20408;-64
2022/05/13 02:20:55;;;;;;;3.90;3.00;;;24.10;49.90;;;;;;4972967;28;20393;-64
2022/05/13 02:23:21;;;;;;;3.70;2.90;;;24.20;50.00;;;;;;4973480;28;20894;-64
2022/05/13 02:25:49;;;;;;;3.28;2.67;;;24.20;50.00;;;;;;4973355;28;20541;-64
2022/05/13 02:28:15;;;;;;;3.00;2.45;;;24.20;50.00;;;;;;4973533;28;20392;-64
2022/05/13 02:30:40;;;;;;;3.65;2.90;;;24.10;50.00;;;;;;4973186;28;20766;-64
2022/05/13 02:33:06;;;;;;;4.87;2.63;;;24.10;50.00;;;;;;4972903;28;20424;-64
2022/05/13 02:35:33;;;;;;;3.97;3.20;;;24.10;50.10;;;;;;4973208;28;20388;-65
2022/05/13 02:37:59;;;;;;;3.83;3.00;;;24.10;50.20;;;;;;4973359;28;20419;-65
2022/05/13 02:43:09;;;;;;;4.72;3.00;;;24.10;50.20;;;;;;4973278;28;20391;-64
2022/05/13 02:45:34;;;;;;;3.80;2.88;;;24.10;50.20;;;;;;4971301;28;20405;-64
2022/05/13 02:48:00;;;;;;;3.85;2.92;;;24.10;50.20;;;;;;4973013;28;20404;-64
2022/05/13 02:50:26;;;;;;;4.10;2.90;;;24.10;50.10;;;;;;4971867;28;20400;-64
2022/05/13 02:52:52;;;;;;;3.53;2.80;;;24.10;50.20;;;;;;4972589;28;20901;-64
2022/05/13 02:55:19;;;;;;;3.58;3.10;;;24.10;50.20;;;;;;4972799;28;20397;-64
2022/05/13 02:57:45;;;;;;;3.90;3.00;;;24.00;50.20;;;;;;4987505;28;20421;-64
2022/05/13 03:00:11;;;;;;;4.20;3.10;;;24.00;50.20;;;;;;4972857;28;20409;-64
2022/05/13 03:02:37;;;;;;;3.17;2.70;;;24.00;50.30;;;;;;4972708;28;20847;-64
2022/05/13 03:05:04;;;;;;;3.40;2.80;;;24.00;50.30;;;;;;4972364;28;20388;-64
2022/05/13 03:07:29;;;;;;;4.80;2.85;;;24.00;50.20;;;;;;4972077;28;20388;-64
2022/05/13 03:09:55;;;;;;;4.80;3.00;;;24.00;50.70;;;;;;4974216;28;20471;-63
2022/05/13 03:12:20;;;;;;;9.10;2.90;;;24.00;50.30;;;;;;4973716;28;21077;-65
2022/05/13 03:14:46;;;;;;;4.83;3.33;;;24.00;50.20;;;;;;4972575;28;20469;-65
2022/05/13 03:17:12;;;;;;;4.75;3.25;;;24.00;50.20;;;;;;4972661;28;20392;-65
2022/05/13 03:19:39;;;;;;;6.37;3.40;;;24.00;50.60;;;;;;4972732;28;20486;-65
2022/05/13 03:22:07;;;;;;;7.55;3.80;;;24.00;51.80;;;;;;4973158;28;20869;-65
2022/05/13 03:24:33;;;;;;;8.77;3.60;;;24.00;53.40;;;;;;4972736;28;20427;-65
2022/05/13 03:26:59;;;;;;;7.22;3.65;;;24.10;53.60;;;;;;4972304;28;20392;-65
2022/05/13 03:29:24;;;;;;;6.93;3.70;;;24.10;52.50;;;;;;4972740;28;20748;-65
2022/05/13 03:31:50;;;;;;;8.60;3.47;;;24.10;53.40;;;;;;4972676;28;20424;-65
2022/05/13 03:34:16;;;;;;;7.03;3.47;;;24.10;53.20;;;;;;4972493;28;20388;-65
2022/05/13 03:36:41;;;;;;;5.90;3.23;;;24.10;52.80;;;;;;4974096;28;20408;-65
2022/05/13 03:39:07;;;;;;;5.45;3.33;;;24.10;53.10;;;;;;4976171;28;20506;-65
2022/05/13 03:41:33;;;;;;;5.43;3.10;;;24.10;53.90;;;;;;4976692;28;20388;-64
2022/05/13 03:43:59;;;;;;;6.65;3.40;;;24.10;54.00;;;;;;4976503;28;20447;-64
2022/05/13 03:46:24;;;;;;;8.10;3.30;;;24.20;53.90;;;;;;4976309;28;20470;-64
2022/05/13 03:48:50;;;;;;;6.78;3.25;;;24.20;53.90;;;;;;4975850;28;20744;-65
2022/05/13 03:51:16;;;;;;;7.50;3.20;;;24.20;53.70;;;;;;4976354;28;20424;-64
2022/05/13 03:53:41;;;;;;;6.82;3.20;;;24.20;53.00;;;;;;4976446;28;20403;-64
2022/05/13 03:56:07;;;;;;;4.50;3.20;;;24.20;54.30;;;;;;4976107;28;20479;-65
2022/05/13 03:58:33;;;;;;;4.85;3.10;;;24.20;54.10;;;;;;4976299;28;20407;-64
2022/05/13 04:00:59;;;;;;;5.10;3.00;;;24.20;54.40;;;;;;4975796;28;20396;-64
2022/05/13 04:03:25;;;;;;;6.90;3.10;;;24.20;54.30;;;;;;4976190;28;20759;-65
2022/05/13 04:11:19;;;;;;;5.13;3.17;;;24.20;52.50;;;;;;4975601;28;20487;-65
2022/05/13 04:16:29;;;;;;;5.30;3.50;;;24.10;52.20;;;;;;4975836;28;20442;-65
2022/05/13 04:18:54;;;;;;;7.33;3.40;;;24.10;52.80;;;;;;4990398;28;20908;-65
2022/05/13 04:21:28;;;;;;;8.80;3.72;;;24.10;52.30;;;;;;4975454;28;20399;-65
2022/05/13 04:24:00;;;;;;;10.80;3.33;;;24.10;52.50;;;;;;4975848;28;20605;-65
2022/05/13 04:26:26;;;;;;;8.07;3.28;;;24.10;52.30;;;;;;4975641;28;20420;-65
2022/05/13 04:28:53;;;;;;;11.05;3.60;;;24.10;52.30;;;;;;4975137;28;20428;-65
2022/05/13 04:31:24;;;;;;;7.30;3.22;;;24.10;52.10;;;;;;4991541;28;20427;-65
2022/05/13 04:33:51;;;;;;;8.75;3.20;;;24.10;52.00;;;;;;5014665;28;20904;-65
2022/05/13 04:36:17;;;;;;;6.93;3.30;;;24.00;51.70;;;;;;5014621;28;20393;-65
2022/05/13 04:38:44;;;;;;;9.05;3.03;;;24.00;51.90;;;;;;5014392;28;20412;-65
2022/05/13 04:43:56;;;;;;;6.57;3.00;;;24.00;51.60;;;;;;5014553;28;20414;-65
2022/05/13 04:46:23;;;;;;;4.85;3.10;;;24.00;51.60;;;;;;5001955;28;20399;-65
2022/05/13 04:48:50;;;;;;;5.03;2.92;;;24.00;51.50;;;;;;4989483;28;20874;-65
2022/05/13 04:51:19;;;;;;;5.18;3.00;;;24.00;51.50;;;;;;4988820;28;20760;-65
2022/05/13 04:53:47;;;;;;;4.70;2.92;;;24.00;51.50;;;;;;5010491;28;20410;-65
2022/05/13 04:56:13;;;;;;;4.25;3.00;;;24.00;51.40;;;;;;4994701;28;20391;-65
2022/05/13 04:58:38;;;;;;;6.15;2.85;;;24.00;51.40;;;;;;4994863;28;20397;-65
2022/05/13 05:01:06;;;;;;;4.17;3.13;;;24.00;51.40;;;;;;4994099;28;20794;-65
2022/05/13 05:03:32;;;;;;;4.37;3.00;;;24.00;51.40;;;;;;5002152;28;20443;-65
2022/05/13 05:05:59;;;;;;;4.50;3.00;;;24.00;51.40;;;;;;5028845;28;20405;-65
2022/05/13 05:08:26;;;;;;;5.13;3.20;;;24.00;51.30;;;;;;5013265;28;20912;-65
2022/05/13 05:10:52;;;;;;;4.50;2.75;;;23.90;51.40;;;;;;5013503;28;20397;-65
2022/05/13 05:13:20;;;;;;;5.53;2.87;;;23.90;51.40;;;;;;5011624;28;20495;-65
2022/05/13 05:15:46;;;;;;;4.50;3.05;;;23.90;51.40;;;;;;5013762;28;20897;-65
2022/05/13 05:18:13;;;;;;;5.03;3.07;;;23.90;51.40;;;;;;5013723;28;20397;-65
2022/05/13 05:20:39;;;;;;;6.57;3.20;;;23.90;51.50;;;;;;5013763;28;20455;-65
2022/05/13 05:23:05;;;;;;;4.22;2.80;;;23.90;51.40;;;;;;5013036;28;20442;-65
2022/05/13 05:25:31;;;;;;;4.37;3.00;;;23.90;51.40;;;;;;5013641;28;20392;-65
2022/05/13 05:27:57;;;;;;;5.07;3.20;;;23.90;51.50;;;;;;5000927;28;20533;-65
2022/05/13 05:30:24;;;;;;;3.87;2.90;;;23.90;51.50;;;;;;4993632;28;20461;-65
2022/05/13 05:32:50;;;;;;;4.30;3.15;;;23.90;51.70;;;;;;4994138;28;20449;-66
2022/05/13 05:35:20;;;;;;;4.13;2.92;;;23.90;51.90;;;;;;4993831;28;20398;-65
2022/05/13 05:37:46;;;;;;;5.43;2.75;;;23.90;52.40;;;;;;4993798;28;20504;-65
2022/05/13 05:40:12;;;;;;;5.63;3.67;;;23.90;52.50;;;;;;4993621;28;21013;-65
2022/05/13 05:42:40;;;;;;;7.43;4.07;;;23.90;52.70;;;;;;4993578;28;20473;-64
2022/05/13 05:45:09;;;;;;;6.35;3.50;;;23.90;51.80;;;;;;4992836;28;20878;-65
2022/05/13 05:47:35;;;;;;;5.47;3.30;;;23.90;51.70;;;;;;4993196;28;20437;-65
2022/05/13 05:50:03;;;;;;;6.60;3.60;;;23.90;51.20;;;;;;4993434;28;20473;-65
2022/05/13 05:52:29;;;;;;;5.30;4.10;;;23.90;51.90;;;;;;4993120;28;20928;-65
2022/05/13 05:57:39;;;;;;;9.45;3.78;;;23.90;51.90;;;;;;4997055;28;20802;-65
2022/05/13 06:00:07;;;;;;;5.97;3.80;;;23.90;51.70;;;;;;4979111;28;20419;-65
2022/05/13 06:02:33;;;;;;;5.13;3.53;;;23.90;51.70;;;;;;4981008;28;20411;-65
2022/05/13 06:04:59;;;;;;;4.60;3.60;;;23.90;51.70;;;;;;5006682;28;20395;-64
2022/05/13 06:07:26;;;;;;;5.63;3.80;;;23.90;51.70;;;;;;4992212;28;20501;-64
2022/05/13 06:09:52;;;;;;;4.43;3.40;;;23.90;51.60;;;;;;4991712;28;20413;-64
2022/05/13 06:12:18;;;;;;;4.57;3.77;;;23.90;51.70;;;;;;4992318;28;20426;-64
2022/05/13 06:14:44;;;;;;;5.22;3.42;;;23.80;51.70;;;;;;5000823;28;20416;-65
2022/05/13 06:17:10;;;;;;;4.40;3.40;;;23.80;51.60;;;;;;4983840;28;20833;-65
2022/05/13 06:19:37;;;;;;;3.92;3.17;;;23.80;51.40;;;;;;4992558;28;20886;-65
2022/05/13 06:22:04;;;;;;;4.55;3.33;;;23.90;51.60;;;;;;4985577;28;20400;-64
2022/05/13 06:24:30;;;;;;;6.63;3.47;;;23.80;51.80;;;;;;4992733;28;20394;-65
2022/05/13 06:26:55;;;;;;;3.88;3.08;;;23.80;51.60;;;;;;4992482;28;20398;-65
2022/05/13 06:29:23;;;;;;;3.70;3.00;;;23.80;51.70;;;;;;5008593;28;20385;-65
2022/05/13 06:31:48;;;;;;;5.30;3.50;;;23.80;51.60;;;;;;4992666;28;20886;-65
2022/05/13 06:34:16;;;;;;;4.10;3.30;;;23.80;51.80;;;;;;4991172;28;20407;-64
2022/05/13 06:36:42;;;;;;;3.50;3.20;;;23.80;51.80;;;;;;4992511;28;20445;-65
2022/05/13 06:39:08;;;;;;;3.80;3.20;;;23.80;51.60;;;;;;4992123;28;20394;-64
2022/05/13 06:41:37;;;;;;;4.50;3.38;;;23.80;51.70;;;;;;4992363;28;20541;-64
2022/05/13 06:44:07;;;;;;;3.40;2.90;;;23.80;51.70;;;;;;4990719;28;20486;-65
2022/05/13 06:46:35;;;;;;;3.85;3.17;;;23.80;51.60;;;;;;5002602;28;20396;-64
2022/05/13 06:49:04;;;;;;;4.23;3.00;;;23.80;51.70;;;;;;4997874;28;20393;-64
2022/05/13 06:51:30;;;;;;;3.97;3.30;;;23.80;51.70;;;;;;4992166;28;20390;-65
2022/05/13 06:53:56;;;;;;;3.75;3.10;;;23.80;51.70;;;;;;4992302;28;20407;-65
2022/05/13 06:56:22;;;;;;;4.70;3.00;;;23.80;51.70;;;;;;4991073;28;20407;-65
2022/05/13 06:58:47;;;;;;;3.97;3.42;;;23.80;51.70;;;;;;5007395;28;20399;-64
2022/05/13 07:01:13;;;;;;;4.77;3.23;;;23.80;51.80;;;;;;4982662;28;20407;-65
2022/05/13 07:03:39;;;;;;;5.15;3.53;;;23.80;51.60;;;;;;4990614;28;20407;-65
2022/05/13 07:06:05;;;;;;;3.40;3.10;;;23.70;51.70;;;;;;4991843;28;20739;-65
2022/05/13 07:08:31;;;;;;;3.50;3.07;;;23.80;51.70;;;;;;4992148;28;20394;-65
2022/05/13 07:10:57;;;;;;;3.78;2.97;;;23.70;51.60;;;;;;4988479;28;20501;-65
2022/05/13 07:13:23;;;;;;;3.92;3.10;;;23.70;51.60;;;;;;4971074;28;20443;-65
2022/05/13 07:15:48;;;;;;;3.50;2.77;;;23.70;51.60;;;;;;4973200;28;20411;-64
2022/05/13 07:18:14;;;;;;;3.47;3.17;;;23.70;51.60;;;;;;4972726;28;20403;-65
2022/05/13 07:20:40;;;;;;;3.97;3.10;;;23.70;51.60;;;;;;4972783;28;20431;-65
2022/05/13 07:23:06;;;;;;;3.92;2.92;;;23.70;51.70;;;;;;4972239;28;20431;-65
2022/05/13 07:25:32;;;;;;;3.58;3.13;;;23.70;51.60;;;;;;4972817;28;20396;-65
2022/05/13 07:27:58;;;;;;;3.20;2.90;;;23.70;51.80;;;;;;4972823;28;20400;-65
2022/05/13 07:30:23;;;;;;;3.42;3.13;;;23.70;51.70;;;;;;4972246;28;20396;-65
2022/05/13 07:32:49;;;;;;;3.37;3.00;;;23.70;51.70;;;;;;4991774;28;20425;-65
2022/05/13 07:35:15;;;;;;;5.78;3.08;;;23.70;51.80;;;;;;5007422;28;20404;-65
2022/05/13 07:37:41;;;;;;;5.80;3.07;;;23.70;52.00;;;;;;4996797;28;20880;-65
2022/05/13 07:42:51;;;;;;;4.30;3.58;;;23.70;51.90;;;;;;4972508;28;20487;-64
2022/05/13 07:45:17;;;;;;;4.70;3.40;;;23.70;51.90;;;;;;4971949;28;20469;-64
2022/05/13 07:47:43;;;;;;;4.32;3.30;;;23.70;51.80;;;;;;4972295;28;20745;-65
2022/05/13 07:50:11;;;;;;;4.07;3.60;;;23.60;51.70;;;;;;4972284;28;20917;-65
2022/05/13 07:52:37;;;;;;;5.05;3.30;;;23.70;51.70;;;;;;4978813;28;20430;-64
2022/05/13 07:55:04;;;;;;;3.78;3.40;;;23.70;51.80;;;;;;4987491;28;20414;-65
2022/05/13 07:57:29;;;;;;;4.75;3.08;;;23.70;51.70;;;;;;4991550;28;20403;-65
2022/05/13 08:02:40;;;;;;;3.70;3.13;;;23.70;51.80;;;;;;4991573;28;20478;-64
2022/05/13 08:05:06;;;;;;;3.45;3.10;;;23.70;51.70;;;;;;4991038;28;20399;-64
2022/05/13 08:07:31;;;;;;;3.67;3.10;;;23.60;51.70;;;;;;4988384;28;20480;-65
2022/05/13 08:09:57;;;;;;;3.78;3.20;;;23.70;51.80;;;;;;4982471;28;20408;-65
2022/05/13 08:12:23;;;;;;;3.60;3.30;;;23.60;51.80;;;;;;4982928;28;20460;-65
2022/05/13 08:14:48;;;;;;;3.35;3.05;;;23.70;51.90;;;;;;4983206;28;20390;-65
2022/05/13 08:17:14;;;;;;;3.50;2.70;;;23.60;51.90;;;;;;4991080;28;20410;-64
2022/05/13 08:19:40;;;;;;;3.15;2.85;;;23.60;51.80;;;;;;4991504;28;20395;-65
2022/05/13 08:22:06;;;;;;;3.40;3.10;;;23.60;51.90;;;;;;4992193;28;20398;-65
2022/05/13 08:24:31;;;;;;;3.50;3.20;;;23.60;51.90;;;;;;4995381;28;20936;-65
2022/05/13 08:26:57;;;;;;;3.70;3.40;;;23.60;51.90;;;;;;4992924;28;20747;-65
2022/05/13 08:29:23;;;;;;;3.45;3.13;;;23.60;52.00;;;;;;4994458;28;20390;-64
2022/05/13 08:31:50;;;;;;;4.20;3.30;;;23.60;52.00;;;;;;4994460;28;20453;-65
2022/05/13 08:34:16;;;;;;;3.85;3.30;;;23.60;51.90;;;;;;4994833;28;20405;-65
2022/05/13 08:36:43;;;;;;;3.60;3.10;;;23.60;51.90;;;;;;4994965;28;20398;-65
2022/05/13 08:39:10;;;;;;;3.60;2.90;;;23.60;51.90;;;;;;4994735;28;20744;-65
2022/05/13 08:42:04;;;;;;;3.10;2.80;;;23.60;52.00;;;;;;4994870;28;20928;-65
2022/05/13 08:44:30;;;;;;;3.80;3.20;;;23.60;51.90;;;;;;4994939;28;20390;-64
2022/05/13 08:47:20;;;;;;;3.95;3.00;;;23.60;51.90;;;;;;4994357;28;20394;-65
2022/05/13 08:49:54;;;;;;;3.55;3.03;;;23.60;52.00;;;;;;4994616;28;20421;-65
2022/05/13 08:55:22;;;;;;;3.60;3.30;;;23.60;51.90;;;;;;4994015;28;20393;-65
2022/05/13 08:57:49;;;;;;;3.92;3.25;;;23.60;52.00;;;;;;4994369;28;20488;-65
2022/05/13 09:00:35;;;;;;;3.45;3.15;;;23.60;52.10;;;;;;4994069;28;20473;-65
2022/05/13 09:03:12;;;;;;;5.23;3.60;;;23.60;52.00;;;;;;5009009;28;20830;-65
2022/05/13 09:05:51;;;;;;;4.28;3.15;;;23.60;52.10;;;;;;4994283;28;20405;-66
2022/05/13 09:08:17;;;;;;;3.58;3.28;;;23.60;52.00;;;;;;4994029;28;20904;-66
2022/05/13 09:11:05;;;;;;;3.78;3.10;;;23.60;52.20;;;;;;4994211;28;20398;-65
2022/05/13 09:13:59;;;;;;;4.20;3.03;;;23.60;52.30;;;;;;4984928;28;20889;-65
2022/05/13 09:16:54;;;;;;;4.35;3.30;;;23.60;52.10;;;;;;4993883;28;20870;-65
2022/05/13 09:19:35;;;;;;;3.90;3.40;;;23.60;52.00;;;;;;4993677;28;20406;-65
2022/05/13 09:22:14;;;;;;;3.72;3.35;;;23.60;52.20;;;;;;4993999;28;20449;-65
2022/05/13 09:24:40;;;;;;;3.50;3.05;;;23.60;52.20;;;;;;4993929;28;20383;-65
2022/05/13 09:27:06;;;;;;;3.90;3.38;;;23.60;52.30;;;;;;4993778;28;20386;-65
2022/05/13 09:29:43;;;;;;;3.30;3.00;;;23.60;52.00;;;;;;4994041;28;20946;-65
2022/05/13 09:32:21;;;;;;;4.00;3.60;;;23.60;51.90;;;;;;5008760;28;20406;-65
2022/05/13 09:35:05;;;;;;;5.50;3.60;;;23.60;52.40;;;;;;4992765;28;20387;-65
2022/05/13 09:37:41;;;;;;;11.27;4.38;;;23.60;52.60;;;;;;5008451;28;20961;-65
2022/05/13 09:40:17;;;;;;;6.87;4.03;;;23.70;53.20;;;;;;4993614;28;20391;-65
2022/05/13 09:42:52;;;;;;;6.53;3.70;;;23.60;52.50;;;;;;4993958;28;20395;-65
2022/05/13 09:45:21;;;;;;;5.18;3.45;;;23.70;52.60;;;;;;4993024;28;20489;-65
2022/05/13 09:48:18;;;;;;;7.45;3.85;;;23.60;52.60;;;;;;4993535;28;20941;-65
2022/05/13 09:50:48;;;;;;;5.60;3.80;;;23.70;52.70;;;;;;4993104;28;20401;-65
2022/05/13 09:53:20;;;;;;;4.15;3.42;;;23.70;52.40;;;;;;4992874;28;20443;-65
2022/05/13 09:55:46;;;;;;;5.20;3.20;;;23.70;52.70;;;;;;4993306;28;20459;-65
2022/05/13 09:58:33;;;;;;;5.72;3.40;;;23.70;52.60;;;;;;4993145;28;20405;-65
2022/05/13 10:01:04;;;;;;;4.10;3.20;;;23.70;52.50;;;;;;4993268;28;20382;-65
2022/05/13 10:03:36;;;;;;;4.38;3.38;;;23.80;52.60;;;;;;5008090;28;20737;-65
2022/05/13 10:06:17;;;;;;;4.50;3.22;;;23.80;52.40;;;;;;4993056;28;20806;-65
2022/05/13 10:08:48;;;;;;;4.28;3.50;;;23.80;52.60;;;;;;4992888;28;20485;-65
2022/05/13 10:14:22;;;;;;;4.82;3.25;;;23.80;52.60;;;;;;4992580;28;20472;-65
2022/05/13 10:16:50;;;;;;;3.53;3.08;;;23.70;52.10;;;;;;4994590;28;20879;-65
2022/05/13 10:19:40;;;;;;;4.35;3.10;;;23.80;52.10;;;;;;4992324;28;20394;-65
2022/05/13 10:22:32;;;;;;;4.57;3.42;;;23.80;52.40;;;;;;4991701;28;20463;-65
2022/05/13 10:25:11;;;;;;;4.43;3.20;;;23.80;52.30;;;;;;4992644;28;20398;-65
2022/05/13 10:27:52;;;;;;;4.10;3.03;;;23.80;52.20;;;;;;4991751;28;20418;-65
2022/05/13 10:30:44;;;;;;;3.50;3.20;;;23.70;52.20;;;;;;4992477;28;20386;-65
2022/05/13 10:33:19;;;;;;;3.70;2.90;;;23.70;52.20;;;;;;4992121;28;20513;-66
2022/05/13 10:35:47;;;;;;;3.20;2.90;;;23.70;52.10;;;;;;4992497;28;20426;-65
2022/05/13 10:38:30;;;;;;;3.22;2.85;;;23.80;52.30;;;;;;5000873;28;20928;-65
2022/05/13 10:41:09;;;;;;;3.15;2.85;;;23.70;52.10;;;;;;4999558;28;20435;-65
2022/05/13 10:43:47;;;;;;;3.67;2.90;;;23.80;52.20;;;;;;4994872;28;20394;-66
2022/05/13 10:46:28;;;;;;;3.47;3.00;;;23.70;52.10;;;;;;4984195;28;20826;-65
2022/05/13 10:48:55;;;;;;;3.47;3.00;;;23.70;52.10;;;;;;4990552;28;20387;-65
2022/05/13 10:51:53;;;;;;;3.45;3.15;;;23.80;52.50;;;;;;4997687;28;20410;-65
2022/05/13 10:54:43;;;;;;;3.55;3.10;;;23.70;52.30;;;;;;4993654;28;20425;-65
2022/05/13 10:57:12;;;;;;;3.28;2.97;;;23.80;52.40;;;;;;4988491;28;20498;-65
2022/05/13 10:59:39;;;;;;;3.40;3.10;;;23.70;52.30;;;;;;4987983;28;20391;-65
2022/05/13 11:02:26;;;;;;;6.80;3.08;;;23.70;52.30;;;;;;4983898;28;20396;-65
2022/05/13 11:05:31;;;;;;;13.43;3.70;;;23.80;52.40;;;;;;4985420;28;20411;-65
2022/05/13 11:08:09;;;;;;;11.60;3.35;;;23.80;52.70;;;;;;4986570;28;20402;-65
2022/05/13 11:11:06;;;;;;;8.50;3.30;;;23.70;52.80;;;;;;4991120;28;20733;-65
2022/05/13 11:13:54;;;;;;;11.48;3.40;;;23.80;53.80;;;;;;4982531;28;20497;-65
2022/05/13 11:16:31;;;;;;;15.50;4.80;;;23.80;53.60;;;;;;4988829;28;20981;-66
2022/05/13 11:19:18;;;;;;;17.55;4.70;;;23.80;56.00;;;;;;4987555;28;20752;-65
2022/05/13 11:21:50;;;;;;;13.30;4.60;;;23.90;57.20;;;;;;5009218;28;20392;-64
2022/05/13 11:27:42;;;;;;;6.10;4.10;;;24.00;57.60;;;;;;4996997;28;20469;-65
2022/05/13 11:30:11;;;;;;;6.90;4.15;;;24.00;57.20;;;;;;4989157;28;20397;-65
2022/05/13 11:33:14;;;;;;;8.82;4.07;;;24.00;57.10;;;;;;5006979;28;20415;-64
2022/05/13 11:35:47;;;;;;;9.30;3.95;;;24.00;58.90;;;;;;4992804;28;20886;-64
2022/05/13 11:38:25;;;;;;;6.57;4.10;;;24.10;59.50;;;;;;4972651;28;20396;-65
2022/05/13 11:41:20;;;;;;;8.38;4.40;;;24.10;58.00;;;;;;4973530;28;20754;-64
2022/05/13 11:43:51;;;;;;;9.88;4.75;;;24.10;58.20;;;;;;4979660;28;20414;-64
2022/05/13 11:46:34;;;;;;;9.25;4.68;;;24.10;58.70;;;;;;4987151;28;20395;-64
2022/05/13 11:49:10;;;;;;;7.00;4.47;;;24.10;58.30;;;;;;4991522;28;20481;-64
2022/05/13 11:51:37;;;;;;;7.65;4.40;;;24.10;59.50;;;;;;4992467;28;20404;-64
2022/05/13 11:54:03;;;;;;;7.32;4.25;;;24.20;59.80;;;;;;4991801;28;20406;-64
2022/05/13 11:56:34;;;;;;;7.70;4.10;;;24.20;59.20;;;;;;4990892;28;20401;-64
2022/05/13 11:59:03;;;;;;;7.18;4.28;;;24.20;59.10;;;;;;4993590;28;20402;-64
2022/05/13 12:01:37;;;;;;;9.50;4.32;;;24.10;58.30;;;;;;4988693;28;20418;-64
2022/05/13 12:04:14;;;;;;;13.45;4.30;;;24.10;58.90;;;;;;4979998;28;20495;-65
2022/05/13 12:06:52;;;;;;;14.55;3.83;;;24.10;57.80;;;;;;4978566;28;20947;-65
2022/05/13 12:09:38;;;;;;;9.52;3.50;;;24.10;58.40;;;;;;4984308;28;20403;-64
2022/05/13 12:12:09;;;;;;;13.57;3.60;;;24.10;57.60;;;;;;4976490;28;20415;-65
2022/05/13 12:14:41;;;;;;;11.48;3.35;;;24.10;57.10;;;;;;4977315;28;20495;-64
2022/05/13 12:17:36;;;;;;;8.60;3.20;;;24.10;57.60;;;;;;4975588;28;20756;-64
2022/05/13 12:20:29;;;;;;;9.80;3.50;;;24.10;57.50;;;;;;4975717;28;20454;-63
2022/05/13 12:23:03;;;;;;;24.23;3.70;;;24.00;56.20;;;;;;4991002;28;20409;-64
2022/05/13 12:25:33;;;;;;;16.65;3.80;;;24.00;57.30;;;;;;5004563;28;20767;-64
2022/05/13 12:28:21;;;;;;;15.57;3.30;;;24.00;57.30;;;;;;4994945;28;20754;-64
2022/05/13 12:30:49;;;;;;;9.48;3.30;;;24.00;57.30;;;;;;4995044;28;20972;-64
2022/05/13 12:33:19;;;;;;;10.80;3.42;;;24.00;57.20;;;;;;5001464;28;20418;-64
2022/05/13 12:39:10;;;;;;;7.70;3.33;;;24.00;56.70;;;;;;4995817;28;20385;-65
2022/05/13 12:41:42;;;;;;;6.78;3.55;;;24.00;56.90;;;;;;4974298;28;20472;-65
2022/05/13 12:44:14;;;;;;;7.63;3.25;;;24.00;56.70;;;;;;4986024;28;20391;-65
2022/05/13 12:46:47;;;;;;;6.32;3.22;;;24.00;56.70;;;;;;4984595;28;20995;-64
2022/05/13 12:49:44;;;;;;;8.88;3.28;;;23.90;56.50;;;;;;4994867;28;20828;-65
2022/05/13 12:52:21;;;;;;;9.02;3.00;;;23.90;56.40;;;;;;4991685;28;20420;-65
2022/05/13 12:54:59;;;;;;;5.35;2.65;;;24.00;56.30;;;;;;4989919;28;20878;-65
2022/05/13 12:57:43;;;;;;;8.30;3.00;;;24.00;56.20;;;;;;4994381;28;20399;-64
2022/05/13 13:00:20;;;;;;;5.30;2.90;;;23.90;56.10;;;;;;4986546;28;20453;-66
2022/05/13 13:02:51;;;;;;;5.55;2.95;;;24.00;56.00;;;;;;5002241;28;20880;-65
2022/05/13 13:05:27;;;;;;;7.43;2.90;;;24.00;55.90;;;;;;4983669;28;20432;-64
2022/05/13 13:07:55;;;;;;;4.63;3.00;;;24.00;55.90;;;;;;4990518;28;20409;-64
2022/05/13 13:10:22;;;;;;;6.22;2.72;;;24.00;55.80;;;;;;4989659;28;20395;-64
2022/05/13 13:13:10;;;;;;;5.28;2.70;;;23.90;55.70;;;;;;4985684;28;20544;-64
2022/05/13 13:15:46;;;;;;;5.28;2.70;;;24.00;55.70;;;;;;4987629;28;20406;-64
2022/05/13 13:18:12;;;;;;;4.70;2.70;;;23.90;55.50;;;;;;4984550;28;20417;-64
2022/05/13 13:20:58;;;;;;;6.97;2.75;;;23.90;55.60;;;;;;4993196;28;20541;-65
2022/05/13 13:23:28;;;;;;;4.65;2.70;;;23.90;55.50;;;;;;4992677;28;20386;-65
2022/05/13 13:25:54;;;;;;;5.68;2.58;;;23.90;55.50;;;;;;4992872;28;20455;-65
2022/05/13 13:28:32;;;;;;;3.72;2.40;;;23.90;55.50;;;;;;4993441;28;20783;-64
2022/05/13 13:31:06;;;;;;;4.45;2.58;;;23.90;55.40;;;;;;4977744;28;20419;-64
2022/05/13 13:33:43;;;;;;;4.47;2.55;;;23.90;55.40;;;;;;4983881;28;20776;-64
2022/05/13 13:36:16;;;;;;;4.18;2.50;;;23.90;55.30;;;;;;4973936;28;20420;-64
2022/05/13 13:38:49;;;;;;;4.68;2.85;;;23.90;55.50;;;;;;4982208;28;20418;-64